sensor_id;sensor_type;location;lat;lon;timestamp;pressure;altitude;pressure_sealevel;temperature;humidity
25947;BME280;13745;51.470;9.894;2023-04-29T00:01:42;98775.03;;;16.94;72.50
25947;BME280;13745;51.470;9.894;2023-04-29T00:04:27;98775.88;;;16.95;72.50
25947;BME280;13745;51.470;9.894;2023-04-29T00:07:12;98775.03;;;16.94;72.76
25947;BME280;13745;51.470;9.894;2023-04-29T00:10:00;98772.41;;;16.94;72.73
25947;BME280;13745;51.470;9.894;2023-04-29T00:12:45;98779.34;;;16.95;72.73
25947;BME280;13745;51.470;9.894;2023-04-29T00:15:31;98775.03;;;16.94;72.96
25947;BME280;13745;51.470;9.894;2023-04-29T00:18:16;98775.03;;;16.94;72.70
25947;BME280;13745;51.470;9.894;2023-04-29T00:21:01;98774.19;;;16.94;72.99
25947;BME280;13745;51.470;9.894;2023-04-29T00:23:48;98781.19;;;16.93;72.89
25947;BME280;13745;51.470;9.894;2023-04-29T00:26:35;98773.50;;;16.90;72.91
25947;BME280;13745;51.470;9.894;2023-04-29T00:29:20;98783.03;;;16.91;73.03
25947;BME280;13745;51.470;9.894;2023-04-29T00:32:06;98780.50;;;16.90;73.20
25947;BME280;13745;51.470;9.894;2023-04-29T00:34:51;98776.19;;;16.89;73.03
25947;BME280;13745;51.470;9.894;2023-04-29T00:37:36;98781.47;;;16.87;73.26
25947;BME280;13745;51.470;9.894;2023-04-29T00:40:22;98785.19;;;16.83;73.24
25947;BME280;13745;51.470;9.894;2023-04-29T00:43:08;98780.97;;;16.80;73.14
25947;BME280;13745;51.470;9.894;2023-04-29T00:45:53;98790.63;;;16.78;73.11
25947;BME280;13745;51.470;9.894;2023-04-29T00:48:38;98784.72;;;16.75;73.18
25947;BME280;13745;51.470;9.894;2023-04-29T00:51:24;98797.03;;;16.73;73.61
25947;BME280;13745;51.470;9.894;2023-04-29T00:54:10;98798.84;;;16.71;73.64
25947;BME280;13745;51.470;9.894;2023-04-29T00:56:55;98805.00;;;16.70;73.72
25947;BME280;13745;51.470;9.894;2023-04-29T00:59:43;98801.59;;;16.68;73.72
25947;BME280;13745;51.470;9.894;2023-04-29T01:02:29;98802.53;;;16.67;73.50
25947;BME280;13745;51.470;9.894;2023-04-29T01:05:14;98799.13;;;16.65;73.71
25947;BME280;13745;51.470;9.894;2023-04-29T01:08:12;98804.41;;;16.63;74.14
25947;BME280;13745;51.470;9.894;2023-04-29T01:11:03;98800.09;;;16.62;73.89
25947;BME280;13745;51.470;9.894;2023-04-29T01:13:57;98807.19;;;16.60;73.82
25947;BME280;13745;51.470;9.894;2023-04-29T01:16:50;98808.09;;;16.59;74.00
25947;BME280;13745;51.470;9.894;2023-04-29T01:19:40;98806.41;;;16.58;74.10
25947;BME280;13745;51.470;9.894;2023-04-29T01:22:28;98810.16;;;16.71;73.40
25947;BME280;13745;51.470;9.894;2023-04-29T01:25:15;98809.19;;;16.55;73.63
25947;BME280;13745;51.470;9.894;2023-04-29T01:28:28;98816.41;;;16.50;74.02
25947;BME280;13745;51.470;9.894;2023-04-29T01:31:21;98814.69;;;16.49;73.89
25947;BME280;13745;51.470;9.894;2023-04-29T01:34:11;98817.31;;;16.49;74.18
25947;BME280;13745;51.470;9.894;2023-04-29T01:37:04;98824.25;;;16.50;74.24
25947;BME280;13745;51.470;9.894;2023-04-29T01:39:59;98815.63;;;16.48;74.14
25947;BME280;13745;51.470;9.894;2023-04-29T01:42:59;98816.47;;;16.48;74.13
25947;BME280;13745;51.470;9.894;2023-04-29T01:45:47;98824.31;;;16.48;73.91
25947;BME280;13745;51.470;9.894;2023-04-29T01:48:34;98819.16;;;16.47;73.96
25947;BME280;13745;51.470;9.894;2023-04-29T01:51:20;98828.72;;;16.48;73.92
25947;BME280;13745;51.470;9.894;2023-04-29T01:54:05;98822.63;;;16.47;73.93
25947;BME280;13745;51.470;9.894;2023-04-29T01:56:50;98823.53;;;16.46;74.32
25947;BME280;13745;51.470;9.894;2023-04-29T01:59:55;98821.78;;;16.47;73.84
25947;BME280;13745;51.470;9.894;2023-04-29T02:02:57;98827.72;;;16.50;73.88
25947;BME280;13745;51.470;9.894;2023-04-29T02:06:08;98832.28;;;16.45;73.80
25947;BME280;13745;51.470;9.894;2023-04-29T02:08:54;98832.38;;;16.44;73.89
25947;BME280;13745;51.470;9.894;2023-04-29T02:11:39;98838.44;;;16.44;73.69
25947;BME280;13745;51.470;9.894;2023-04-29T02:14:25;98842.75;;;16.45;73.80
25947;BME280;13745;51.470;9.894;2023-04-29T02:17:11;98840.28;;;16.42;73.61
25947;BME280;13745;51.470;9.894;2023-04-29T02:19:58;98835.91;;;16.43;73.58
25947;BME280;13745;51.470;9.894;2023-04-29T02:22:43;98844.59;;;16.43;73.74
25947;BME280;13745;51.470;9.894;2023-04-29T02:25:29;98836.84;;;16.42;73.38
25947;BME280;13745;51.470;9.894;2023-04-29T02:28:16;98837.75;;;16.41;73.49
25947;BME280;13745;51.470;9.894;2023-04-29T02:31:01;98842.97;;;16.41;73.29
25947;BME280;13745;51.470;9.894;2023-04-29T02:33:48;98843.91;;;16.40;73.36
25947;BME280;13745;51.470;9.894;2023-04-29T02:36:34;98843.06;;;16.39;73.51
25947;BME280;13745;51.470;9.894;2023-04-29T02:39:19;98842.13;;;16.40;73.56
25947;BME280;13745;51.470;9.894;2023-04-29T02:42:04;98847.44;;;16.39;73.31
25947;BME280;13745;51.470;9.894;2023-04-29T02:44:49;98845.72;;;16.38;73.12
25947;BME280;13745;51.470;9.894;2023-04-29T02:47:34;98850.94;;;16.38;73.08
25947;BME280;13745;51.470;9.894;2023-04-29T02:50:20;98851.88;;;16.37;73.09
25947;BME280;13745;51.470;9.894;2023-04-29T02:53:06;98849.25;;;16.37;73.06
25947;BME280;13745;51.470;9.894;2023-04-29T02:55:51;98851.03;;;16.36;72.97
25947;BME280;13745;51.470;9.894;2023-04-29T02:58:36;98856.19;;;16.38;72.89
25947;BME280;13745;51.470;9.894;2023-04-29T03:01:21;98857.03;;;16.38;72.72
25947;BME280;13745;51.470;9.894;2023-04-29T03:04:07;98856.25;;;16.36;72.81
25947;BME280;13745;51.470;9.894;2023-04-29T03:06:55;98856.34;;;16.35;72.75
25947;BME280;13745;51.470;9.894;2023-04-29T03:09:43;98858.03;;;16.36;72.56
25947;BME280;13745;51.470;9.894;2023-04-29T03:12:28;98853.72;;;16.35;72.62
25947;BME280;13745;51.470;9.894;2023-04-29T03:15:13;98850.34;;;16.33;72.54
25947;BME280;13745;51.470;9.894;2023-04-29T03:17:59;98856.41;;;16.33;72.60
25947;BME280;13745;51.470;9.894;2023-04-29T03:20:44;98846.88;;;16.32;72.23
25947;BME280;13745;51.470;9.894;2023-04-29T03:23:31;98852.19;;;16.31;72.52
25947;BME280;13745;51.470;9.894;2023-04-29T03:26:17;98850.41;;;16.31;72.29
25947;BME280;13745;51.470;9.894;2023-04-29T03:29:02;98849.59;;;16.29;72.45
25947;BME280;13745;51.470;9.894;2023-04-29T03:31:47;98854.00;;;16.28;72.58
25947;BME280;13745;51.470;9.894;2023-04-29T03:34:32;98866.22;;;16.28;72.21
25947;BME280;13745;51.470;9.894;2023-04-29T03:37:33;98861.00;;;16.28;72.20
25947;BME280;13745;51.470;9.894;2023-04-29T03:40:40;98852.28;;;16.27;72.31
25947;BME280;13745;51.470;9.894;2023-04-29T03:43:25;98852.38;;;16.26;72.25
25947;BME280;13745;51.470;9.894;2023-04-29T03:46:10;98858.44;;;16.26;72.53
25947;BME280;13745;51.470;9.894;2023-04-29T03:48:56;98862.75;;;16.27;72.27
25947;BME280;13745;51.470;9.894;2023-04-29T03:51:41;98861.06;;;16.26;72.20
25947;BME280;13745;51.470;9.894;2023-04-29T03:54:31;98862.84;;;16.26;72.26
25947;BME280;13745;51.470;9.894;2023-04-29T03:57:18;98868.13;;;16.24;72.14
25947;BME280;13745;51.470;9.894;2023-04-29T04:00:04;98869.97;;;16.22;72.42
25947;BME280;13745;51.470;9.894;2023-04-29T04:02:57;98871.75;;;16.22;72.15
25947;BME280;13745;51.470;9.894;2023-04-29T04:05:43;98882.25;;;16.20;72.21
25947;BME280;13745;51.470;9.894;2023-04-29T04:08:31;98885.72;;;16.21;72.21
25947;BME280;13745;51.470;9.894;2023-04-29T04:11:26;98893.78;;;16.16;72.13
25947;BME280;13745;51.470;9.894;2023-04-29T04:14:18;98899.13;;;16.13;71.97
25947;BME280;13745;51.470;9.894;2023-04-29T04:17:03;98902.81;;;16.09;71.83
25947;BME280;13745;51.470;9.894;2023-04-29T04:19:49;98908.22;;;16.05;71.76
25947;BME280;13745;51.470;9.894;2023-04-29T04:22:34;98902.28;;;16.01;71.98
25947;BME280;13745;51.470;9.894;2023-04-29T04:25:35;98905.88;;;15.98;71.94
25947;BME280;13745;51.470;9.894;2023-04-29T04:28:40;98910.31;;;15.96;71.51
25947;BME280;13745;51.470;9.894;2023-04-29T04:31:35;98910.47;;;15.93;71.71
25947;BME280;13745;51.470;9.894;2023-04-29T04:34:21;98916.59;;;15.92;71.70
25947;BME280;13745;51.470;9.894;2023-04-29T04:37:08;98919.28;;;15.91;71.70
25947;BME280;13745;51.470;9.894;2023-04-29T04:39:55;98927.19;;;15.89;71.71
25947;BME280;13745;51.470;9.894;2023-04-29T04:42:40;98930.66;;;15.90;71.55
25947;BME280;13745;51.470;9.894;2023-04-29T04:45:31;98936.66;;;15.92;71.70
25947;BME280;13745;51.470;9.894;2023-04-29T04:48:18;98941.91;;;15.92;71.71
25947;BME280;13745;51.470;9.894;2023-04-29T04:51:07;98946.28;;;15.91;71.83
25947;BME280;13745;51.470;9.894;2023-04-29T04:53:52;98954.91;;;15.93;71.67
25947;BME280;13745;51.470;9.894;2023-04-29T04:56:40;98960.97;;;15.94;71.43
25947;BME280;13745;51.470;9.894;2023-04-29T04:59:26;98962.81;;;15.92;71.41
25947;BME280;13745;51.470;9.894;2023-04-29T05:02:11;98966.28;;;15.92;71.29
25947;BME280;13745;51.470;9.894;2023-04-29T05:04:58;98964.69;;;15.88;71.29
25947;BME280;13745;51.470;9.894;2023-04-29T05:07:46;98974.25;;;15.89;71.55
25947;BME280;13745;51.470;9.894;2023-04-29T05:10:34;98978.66;;;15.87;71.45
25947;BME280;13745;51.470;9.894;2023-04-29T05:13:20;98976.97;;;15.86;71.08
25947;BME280;13745;51.470;9.894;2023-04-29T05:16:05;98977.88;;;15.85;71.43
25947;BME280;13745;51.470;9.894;2023-04-29T05:18:58;98984.88;;;15.85;71.22
25947;BME280;13745;51.470;9.894;2023-04-29T05:21:49;98980.56;;;15.84;71.43
25947;BME280;13745;51.470;9.894;2023-04-29T05:24:35;98981.41;;;15.84;71.47
25947;BME280;13745;51.470;9.894;2023-04-29T05:27:19;98986.66;;;15.84;71.11
25947;BME280;13745;51.470;9.894;2023-04-29T05:30:05;98989.19;;;15.86;71.15
25947;BME280;13745;51.470;9.894;2023-04-29T05:32:50;98991.75;;;15.87;71.04
25947;BME280;13745;51.470;9.894;2023-04-29T05:35:38;98995.28;;;15.86;71.24
25947;BME280;13745;51.470;9.894;2023-04-29T05:38:24;99005.72;;;15.86;71.07
25947;BME280;13745;51.470;9.894;2023-04-29T05:41:20;99003.13;;;15.86;70.93
25947;BME280;13745;51.470;9.894;2023-04-29T05:44:19;99010.94;;;15.86;71.19
25947;BME280;13745;51.470;9.894;2023-04-29T05:47:05;99007.56;;;15.84;71.16
25947;BME280;13745;51.470;9.894;2023-04-29T05:49:50;99009.25;;;15.85;70.98
25947;BME280;13745;51.470;9.894;2023-04-29T05:52:35;99008.41;;;15.85;71.09
25947;BME280;13745;51.470;9.894;2023-04-29T05:55:22;99021.47;;;15.85;71.08
25947;BME280;13745;51.470;9.894;2023-04-29T05:58:07;99026.63;;;15.86;70.94
25947;BME280;13745;51.470;9.894;2023-04-29T06:00:52;99026.56;;;15.88;71.11
25947;BME280;13745;51.470;9.894;2023-04-29T06:03:42;99035.22;;;15.90;71.06
25947;BME280;13745;51.470;9.894;2023-04-29T06:06:50;99031.69;;;15.91;70.86
25947;BME280;13745;51.470;9.894;2023-04-29T06:09:55;99049.84;;;15.94;71.09
25947;BME280;13745;51.470;9.894;2023-04-29T06:12:43;99049.06;;;15.92;70.87
25947;BME280;13745;51.470;9.894;2023-04-29T06:15:30;99049.06;;;15.92;71.09
25947;BME280;13745;51.470;9.894;2023-04-29T06:18:15;99052.59;;;15.91;70.96
25947;BME280;13745;51.470;9.894;2023-04-29T06:21:00;99052.59;;;15.91;71.07
25947;BME280;13745;51.470;9.894;2023-04-29T06:23:45;99065.69;;;15.91;71.02
25947;BME280;13745;51.470;9.894;2023-04-29T06:26:34;99069.06;;;15.93;71.17
25947;BME280;13745;51.470;9.894;2023-04-29T06:29:21;99066.53;;;15.91;71.41
25947;BME280;13745;51.470;9.894;2023-04-29T06:32:06;99069.13;;;15.91;70.90
25947;BME280;13745;51.470;9.894;2023-04-29T06:34:51;99067.31;;;15.93;71.14
25947;BME280;13745;51.470;9.894;2023-04-29T06:37:43;99071.56;;;15.96;71.18
25947;BME280;13745;51.470;9.894;2023-04-29T06:40:46;99086.22;;;16.00;71.06
25947;BME280;13745;51.470;9.894;2023-04-29T06:43:34;99089.53;;;16.04;71.21
25947;BME280;13745;51.470;9.894;2023-04-29T06:46:39;99098.06;;;16.09;70.88
25947;BME280;13745;51.470;9.894;2023-04-29T06:49:32;99104.81;;;16.14;70.89
25947;BME280;13745;51.470;9.894;2023-04-29T06:52:18;99112.47;;;16.19;70.88
25947;BME280;13745;51.470;9.894;2023-04-29T06:55:03;99108.75;;;16.24;70.70
25947;BME280;13745;51.470;9.894;2023-04-29T06:57:49;99112.88;;;16.30;70.55
25947;BME280;13745;51.470;9.894;2023-04-29T07:00:34;99118.84;;;16.34;70.58
25947;BME280;13745;51.470;9.894;2023-04-29T07:03:20;99116.94;;;16.37;70.40
25947;BME280;13745;51.470;9.894;2023-04-29T07:06:06;99124.63;;;16.42;70.45
25947;BME280;13745;51.470;9.894;2023-04-29T07:08:51;99120.09;;;16.45;70.13
25947;BME280;13745;51.470;9.894;2023-04-29T07:11:36;99123.53;;;16.47;70.19
25947;BME280;13745;51.470;9.894;2023-04-29T07:14:21;99132.00;;;16.52;69.99
25947;BME280;13745;51.470;9.894;2023-04-29T07:17:06;99130.06;;;16.57;69.63
25947;BME280;13745;51.470;9.894;2023-04-29T07:19:53;99142.16;;;16.60;69.70
25947;BME280;13745;51.470;9.894;2023-04-29T07:22:38;99146.31;;;16.66;69.46
25947;BME280;13745;51.470;9.894;2023-04-29T07:25:24;99148.81;;;16.69;69.45
25947;BME280;13745;51.470;9.894;2023-04-29T07:28:10;99160.81;;;16.74;69.30
25947;BME280;13745;51.470;9.894;2023-04-29T07:30:54;99165.03;;;16.77;69.31
25947;BME280;13745;51.470;9.894;2023-04-29T07:33:40;99167.41;;;16.83;69.19
25947;BME280;13745;51.470;9.894;2023-04-29T07:36:28;99174.28;;;16.85;68.92
25947;BME280;13745;51.470;9.894;2023-04-29T07:39:14;99177.63;;;16.89;69.01
25947;BME280;13745;51.470;9.894;2023-04-29T07:42:02;99167.94;;;16.91;68.87
25947;BME280;13745;51.470;9.894;2023-04-29T07:44:48;99176.44;;;16.96;68.88
25947;BME280;13745;51.470;9.894;2023-04-29T07:47:33;99184.94;;;17.01;68.79
25947;BME280;13745;51.470;9.894;2023-04-29T07:50:18;99184.78;;;17.06;68.45
25947;BME280;13745;51.470;9.894;2023-04-29T07:53:05;99188.88;;;17.11;68.27
25947;BME280;13745;51.470;9.894;2023-04-29T07:55:50;99193.84;;;17.18;68.35
25947;BME280;13745;51.470;9.894;2023-04-29T07:58:37;99198.91;;;17.22;68.24
25947;BME280;13745;51.470;9.894;2023-04-29T08:01:22;99203.88;;;17.28;68.14
25947;BME280;13745;51.470;9.894;2023-04-29T08:04:07;99205.53;;;17.31;67.96
25947;BME280;13745;51.470;9.894;2023-04-29T08:07:03;99210.63;;;17.34;67.76
25947;BME280;13745;51.470;9.894;2023-04-29T08:09:49;99209.63;;;17.36;67.80
25947;BME280;13745;51.470;9.894;2023-04-29T08:12:35;99215.38;;;17.45;67.81
25947;BME280;13745;51.470;9.894;2023-04-29T08:15:20;99218.59;;;17.51;67.65
25947;BME280;13745;51.470;9.894;2023-04-29T08:18:05;99225.25;;;17.58;67.44
25947;BME280;13745;51.470;9.894;2023-04-29T08:20:50;99235.41;;;17.66;67.23
25947;BME280;13745;51.470;9.894;2023-04-29T08:23:35;99230.00;;;17.69;67.03
25947;BME280;13745;51.470;9.894;2023-04-29T08:26:21;99236.09;;;17.71;66.99
25947;BME280;13745;51.470;9.894;2023-04-29T08:29:07;99230.56;;;17.77;66.58
25947;BME280;13745;51.470;9.894;2023-04-29T08:31:52;99236.44;;;17.82;66.44
25947;BME280;13745;51.470;9.894;2023-04-29T08:34:37;99238.00;;;17.86;66.57
25947;BME280;13745;51.470;9.894;2023-04-29T08:37:22;99235.34;;;17.88;66.21
25947;BME280;13745;51.470;9.894;2023-04-29T08:40:08;99239.50;;;17.92;66.19
25947;BME280;13745;51.470;9.894;2023-04-29T08:42:54;99238.47;;;17.96;66.09
25947;BME280;13745;51.470;9.894;2023-04-29T08:45:41;99246.75;;;18.06;65.92
25947;BME280;13745;51.470;9.894;2023-04-29T08:48:27;99252.50;;;18.14;65.91
25947;BME280;13745;51.470;9.894;2023-04-29T08:51:12;99256.59;;;18.19;65.51
25947;BME280;13745;51.470;9.894;2023-04-29T08:53:57;99264.47;;;18.19;65.02
25947;BME280;13745;51.470;9.894;2023-04-29T08:56:44;99262.84;;;18.17;65.10
25947;BME280;13745;51.470;9.894;2023-04-29T08:59:32;99262.19;;;18.12;65.16
25947;BME280;13745;51.470;9.894;2023-04-29T09:02:17;99270.13;;;18.10;64.95
25947;BME280;13745;51.470;9.894;2023-04-29T09:05:08;99271.28;;;18.05;64.91
25947;BME280;13745;51.470;9.894;2023-04-29T09:07:55;99264.69;;;17.96;64.79
25947;BME280;13745;51.470;9.894;2023-04-29T09:10:42;99278.34;;;17.84;64.80
25947;BME280;13745;51.470;9.894;2023-04-29T09:13:31;99281.56;;;17.70;64.90
25947;BME280;13745;51.470;9.894;2023-04-29T09:16:18;99280.56;;;17.52;65.21
25947;BME280;13745;51.470;9.894;2023-04-29T09:19:03;99289.03;;;17.38;65.13
25947;BME280;13745;51.470;9.894;2023-04-29T09:21:53;99288.69;;;17.26;65.44
25947;BME280;13745;51.470;9.894;2023-04-29T09:24:39;99296.03;;;17.18;65.41
25947;BME280;13745;51.470;9.894;2023-04-29T09:27:27;99295.56;;;17.08;65.64
25947;BME280;13745;51.470;9.894;2023-04-29T09:30:13;99308.03;;;17.01;65.67
25947;BME280;13745;51.470;9.894;2023-04-29T09:33:06;99313.41;;;16.98;65.77
25947;BME280;13745;51.470;9.894;2023-04-29T09:35:51;99318.66;;;16.98;65.91
25947;BME280;13745;51.470;9.894;2023-04-29T09:38:52;99328.44;;;16.93;65.94
25947;BME280;13745;51.470;9.894;2023-04-29T09:41:39;99332.91;;;16.91;65.56
25947;BME280;13745;51.470;9.894;2023-04-29T09:44:25;99329.50;;;16.89;66.01
25947;BME280;13745;51.470;9.894;2023-04-29T09:47:11;99339.97;;;16.89;65.94
25947;BME280;13745;51.470;9.894;2023-04-29T09:50:09;99338.22;;;16.90;66.21
25947;BME280;13745;51.470;9.894;2023-04-29T09:52:56;99350.44;;;16.89;66.09
25947;BME280;13745;51.470;9.894;2023-04-29T09:55:57;99345.22;;;16.89;66.00
25947;BME280;13745;51.470;9.894;2023-04-29T09:58:42;99355.63;;;16.91;66.11
25947;BME280;13745;51.470;9.894;2023-04-29T10:01:29;99355.25;;;17.00;65.95
25947;BME280;13745;51.470;9.894;2023-04-29T10:04:16;99354.88;;;17.09;66.13
25947;BME280;13745;51.470;9.894;2023-04-29T10:07:02;99355.19;;;17.23;65.95
25947;BME280;13745;51.470;9.894;2023-04-29T10:09:48;99362.53;;;17.35;65.66
25947;BME280;13745;51.470;9.894;2023-04-29T10:12:34;99362.22;;;17.43;65.51
25947;BME280;13745;51.470;9.894;2023-04-29T10:15:24;99362.81;;;17.50;65.71
25947;BME280;13745;51.470;9.894;2023-04-29T10:18:13;99363.34;;;17.58;65.53
25947;BME280;13745;51.470;9.894;2023-04-29T10:21:02;99364.72;;;17.66;64.90
25947;BME280;13745;51.470;9.894;2023-04-29T10:23:52;99372.91;;;17.59;64.43
25947;BME280;13745;51.470;9.894;2023-04-29T10:26:38;99375.91;;;17.50;64.67
25947;BME280;13745;51.470;9.894;2023-04-29T10:29:24;99370.13;;;17.41;64.49
25947;BME280;13745;51.470;9.894;2023-04-29T10:32:12;99372.81;;;17.40;64.93
25947;BME280;13745;51.470;9.894;2023-04-29T10:34:58;99387.38;;;17.47;65.06
25947;BME280;13745;51.470;9.894;2023-04-29T10:37:46;99385.47;;;17.51;64.77
25947;BME280;13745;51.470;9.894;2023-04-29T10:40:39;99386.56;;;17.45;64.71
25947;BME280;13745;51.470;9.894;2023-04-29T10:43:25;99382.53;;;17.38;64.55
25947;BME280;13745;51.470;9.894;2023-04-29T10:46:21;99392.56;;;17.27;64.59
25947;BME280;13745;51.470;9.894;2023-04-29T10:49:07;99394.66;;;17.19;64.37
25947;BME280;13745;51.470;9.894;2023-04-29T10:52:02;99393.94;;;17.15;64.65
25947;BME280;13745;51.470;9.894;2023-04-29T10:55:00;99396.25;;;17.23;64.55
25947;BME280;13745;51.470;9.894;2023-04-29T10:57:47;99392.03;;;17.40;64.64
25947;BME280;13745;51.470;9.894;2023-04-29T11:00:36;99393.56;;;17.66;64.24
25947;BME280;13745;51.470;9.894;2023-04-29T11:03:46;99384.47;;;17.95;64.31
25947;BME280;13745;51.470;9.894;2023-04-29T11:06:40;99388.75;;;18.37;64.07
25947;BME280;13745;51.470;9.894;2023-04-29T11:09:26;99389.50;;;18.97;63.37
25947;BME280;13745;51.470;9.894;2023-04-29T11:12:11;99395.31;;;19.40;62.33
25947;BME280;13745;51.470;9.894;2023-04-29T11:15:07;99385.25;;;19.48;61.50
25947;BME280;13745;51.470;9.894;2023-04-29T11:17:57;99396.22;;;19.39;61.22
25947;BME280;13745;51.470;9.894;2023-04-29T11:21:12;99399.53;;;19.25;60.99
25947;BME280;13745;51.470;9.894;2023-04-29T11:23:58;99404.59;;;19.11;60.90
25947;BME280;13745;51.470;9.894;2023-04-29T11:26:44;99412.22;;;18.98;61.13
25947;BME280;13745;51.470;9.894;2023-04-29T11:29:30;99405.69;;;18.88;61.05
25947;BME280;13745;51.470;9.894;2023-04-29T11:32:19;99411.38;;;18.79;60.96
25947;BME280;13745;51.470;9.894;2023-04-29T11:35:08;99416.13;;;18.71;61.02
25947;BME280;13745;51.470;9.894;2023-04-29T11:37:54;99418.81;;;18.69;61.01
25947;BME280;13745;51.470;9.894;2023-04-29T11:40:40;99417.19;;;18.67;61.00
25947;BME280;13745;51.470;9.894;2023-04-29T11:43:25;99421.50;;;18.68;60.77
25947;BME280;13745;51.470;9.894;2023-04-29T11:46:12;99420.00;;;18.62;60.42
25947;BME280;13745;51.470;9.894;2023-04-29T11:48:58;99425.59;;;18.55;60.56
25947;BME280;13745;51.470;9.894;2023-04-29T11:51:44;99421.53;;;18.47;60.62
25947;BME280;13745;51.470;9.894;2023-04-29T11:54:29;99434.00;;;18.42;60.60
25947;BME280;13745;51.470;9.894;2023-04-29T11:57:14;99439.41;;;18.39;60.85
25947;BME280;13745;51.470;9.894;2023-04-29T12:00:00;99432.50;;;18.37;60.85
25947;BME280;13745;51.470;9.894;2023-04-29T12:02:45;99434.41;;;18.33;60.61
25947;BME280;13745;51.470;9.894;2023-04-29T12:05:32;99431.88;;;18.32;60.73
25947;BME280;13745;51.470;9.894;2023-04-29T12:08:18;99437.97;;;18.32;60.61
25947;BME280;13745;51.470;9.894;2023-04-29T12:11:05;99440.66;;;18.31;60.72
25947;BME280;13745;51.470;9.894;2023-04-29T12:13:51;99445.78;;;18.34;60.52
25947;BME280;13745;51.470;9.894;2023-04-29T12:16:37;99442.28;;;18.33;60.46
25947;BME280;13745;51.470;9.894;2023-04-29T12:19:23;99440.66;;;18.31;60.36
25947;BME280;13745;51.470;9.894;2023-04-29T12:22:10;99438.31;;;18.24;60.50
25947;BME280;13745;51.470;9.894;2023-04-29T12:24:55;99443.75;;;18.20;60.58
25947;BME280;13745;51.470;9.894;2023-04-29T12:27:41;99442.97;;;18.18;60.55
25947;BME280;13745;51.470;9.894;2023-04-29T12:30:26;99448.47;;;18.12;60.49
25947;BME280;13745;51.470;9.894;2023-04-29T12:33:15;99454.72;;;18.09;60.69
25947;BME280;13745;51.470;9.894;2023-04-29T12:36:02;99455.63;;;18.08;60.61
25947;BME280;13745;51.470;9.894;2023-04-29T12:38:49;99453.16;;;18.05;60.88
25947;BME280;13745;51.470;9.894;2023-04-29T12:41:38;99460.16;;;18.05;60.97
25947;BME280;13745;51.470;9.894;2023-04-29T12:44:24;99463.66;;;18.05;60.94
25947;BME280;13745;51.470;9.894;2023-04-29T12:47:10;99461.88;;;18.06;61.06
25947;BME280;13745;51.470;9.894;2023-04-29T12:49:56;99470.38;;;18.11;61.11
25947;BME280;13745;51.470;9.894;2023-04-29T12:52:41;99464.03;;;18.16;60.75
25947;BME280;13745;51.470;9.894;2023-04-29T12:55:27;99471.72;;;18.21;60.59
25947;BME280;13745;51.470;9.894;2023-04-29T12:58:12;99477.66;;;18.24;60.41
25947;BME280;13745;51.470;9.894;2023-04-29T13:00:57;99472.41;;;18.24;59.99
25947;BME280;13745;51.470;9.894;2023-04-29T13:03:42;99475.13;;;18.23;59.90
25947;BME280;13745;51.470;9.894;2023-04-29T13:06:27;99477.00;;;18.19;59.44
25947;BME280;13745;51.470;9.894;2023-04-29T13:09:12;99470.13;;;18.17;59.48
25947;BME280;13745;51.470;9.894;2023-04-29T13:11:58;99472.97;;;18.12;59.48
25947;BME280;13745;51.470;9.894;2023-04-29T13:14:44;99476.47;;;18.11;59.37
25947;BME280;13745;51.470;9.894;2023-04-29T13:17:29;99474.00;;;18.08;59.39
25947;BME280;13745;51.470;9.894;2023-04-29T13:20:15;99470.69;;;18.03;59.23
25947;BME280;13745;51.470;9.894;2023-04-29T13:23:00;99474.47;;;17.98;59.50
25947;BME280;13745;51.470;9.894;2023-04-29T13:25:45;99477.16;;;17.96;59.37
25947;BME280;13745;51.470;9.894;2023-04-29T13:28:32;99476.41;;;17.92;59.35
25947;BME280;13745;51.470;9.894;2023-04-29T13:31:17;99479.94;;;17.91;59.28
25947;BME280;13745;51.470;9.894;2023-04-29T13:34:02;99478.19;;;17.92;59.38
25947;BME280;13745;51.470;9.894;2023-04-29T13:36:47;99485.13;;;17.93;59.42
25947;BME280;13745;51.470;9.894;2023-04-29T13:39:32;99487.69;;;17.94;59.40
25947;BME280;13745;51.470;9.894;2023-04-29T13:42:17;99489.53;;;17.92;59.18
25947;BME280;13745;51.470;9.894;2023-04-29T13:45:05;99490.44;;;17.91;59.22
25947;BME280;13745;51.470;9.894;2023-04-29T13:47:50;99490.50;;;17.90;59.25
25947;BME280;13745;51.470;9.894;2023-04-29T13:50:35;99492.28;;;17.89;59.40
25947;BME280;13745;51.470;9.894;2023-04-29T13:53:20;99505.88;;;17.55;60.07
25947;BME280;13745;51.470;9.894;2023-04-29T13:56:06;99499.25;;;18.11;58.93
25947;BME280;13745;51.470;9.894;2023-04-29T13:58:51;99499.59;;;18.23;58.72
25947;BME280;13745;51.470;9.894;2023-04-29T14:01:38;99503.13;;;18.22;58.61
25947;BME280;13745;51.470;9.894;2023-04-29T14:04:23;99498.81;;;18.21;58.74
25947;BME280;13745;51.470;9.894;2023-04-29T14:07:08;99506.06;;;18.35;58.64
25947;BME280;13745;51.470;9.894;2023-04-29T14:09:53;99509.31;;;18.21;58.92
25947;BME280;13745;51.470;9.894;2023-04-29T14:12:38;99507.72;;;18.17;59.11
25947;BME280;13745;51.470;9.894;2023-04-29T14:15:23;99505.94;;;18.18;58.85
25947;BME280;13745;51.470;9.894;2023-04-29T14:18:09;99497.41;;;18.33;58.98
25947;BME280;13745;51.470;9.894;2023-04-29T14:20:54;99505.22;;;18.35;58.88
25947;BME280;13745;51.470;9.894;2023-04-29T14:23:40;99510.53;;;18.33;59.06
25947;BME280;13745;51.470;9.894;2023-04-29T14:26:25;99512.47;;;18.30;59.19
25947;BME280;13745;51.470;9.894;2023-04-29T14:29:11;99514.88;;;18.14;59.27
25947;BME280;13745;51.470;9.894;2023-04-29T14:31:56;99511.25;;;18.16;59.33
25947;BME280;13745;51.470;9.894;2023-04-29T14:34:43;99519.72;;;18.23;59.10
25947;BME280;13745;51.470;9.894;2023-04-29T14:37:28;99529.91;;;18.31;58.96
25947;BME280;13745;51.470;9.894;2023-04-29T14:40:13;99524.34;;;18.38;58.47
25947;BME280;13745;51.470;9.894;2023-04-29T14:42:58;99529.28;;;18.44;58.54
25947;BME280;13745;51.470;9.894;2023-04-29T14:45:44;99529.97;;;18.49;58.19
25947;BME280;13745;51.470;9.894;2023-04-29T14:48:30;99525.31;;;18.56;58.22